Quick Links (Output Below):   Max & Min Temps   /   Climate Reports   /   Zone Forecasts
River Forecasts   /   Forestry Forecasts   /   Aviation Forecasts   /   Radars   /   Features

Terminal Aerodrome Forecast (Pine Bluff)

Pick a Site:
Arkadelphia | El Dorado | Fayetteville | Fort Smith | Harrison | Highfill | Hot Springs | Jonesboro
Little Rock | Monticello | Mountain Home | Pine Bluff | Texarkana
 Forecast 

KPBF 261120Z 2612/2712 VRB02KT P6SM SKC
     FM261600 22012KT P6SM SCT040
     FM270200 19003KT P6SM SKC=


 Latest METARs (Observations) 
How to Decode METARs
11Z KPBF 261053Z AUTO 00000KT 7SM CLR 21/20 A3000 RMK AO2 SLP156
         T02110200
         
10Z KPBF 260953Z AUTO 00000KT 8SM CLR 21/21 A2999 RMK AO2 SLP151
         T02110206
         
09Z KPBF 260853Z AUTO 00000KT 7SM CLR 22/21 A2998 RMK AO2 SLP149
         T02170206 56005
         
08Z KPBF 260753Z AUTO 00000KT 10SM CLR 22/21 A2998 RMK AO2 SLP149
         T02220206
         
07Z KPBF 260653Z AUTO 00000KT 10SM CLR 22/21 A2998 RMK AO2 SLP150
         T02220211
         
06Z KPBF 260553Z AUTO 00000KT 10SM CLR 23/21 A2999 RMK AO2 SLP154
         T02280211 10300 20222 403110156 51009
         
05Z KPBF 260453Z AUTO 00000KT 10SM CLR 23/22 A2998 RMK AO2 SLP150
         T02330217
         
04Z KPBF 260353Z AUTO 16004KT 10SM CLR 24/22 A2998 RMK AO2 SLP148
         T02390217
         
03Z KPBF 260253Z AUTO 17005KT 10SM CLR 24/22 A2997 RMK AO2 SLP144
         T02440217 58003
         
02Z KPBF 260153Z AUTO 00000KT 10SM CLR 26/22 A2997 RMK AO2 SLP146
         T02560222
         
***** Today's Observations (Above) *****


Back to Main Page
http://www.srh.noaa.gov/lzk/qfcst.php

USA.gov is the U.S. government's official web portal to all federal, state and local government web resources and services.